createdAt,value
2017-08-10T00:00:27.280Z,0
2017-08-10T00:01:37.209Z,0
2017-08-10T00:02:46.827Z,0
2017-08-10T00:03:56.481Z,0
2017-08-10T00:05:06.396Z,0
2017-08-10T00:06:15.996Z,0
2017-08-10T00:07:25.909Z,0
2017-08-10T00:08:35.534Z,0
2017-08-10T00:09:45.241Z,0
2017-08-10T00:10:55.469Z,0
2017-08-10T00:12:05.397Z,0
2017-08-10T00:13:15.019Z,0
2017-08-10T00:14:25.247Z,0
2017-08-10T00:15:35.456Z,0
2017-08-10T00:16:45.685Z,0
2017-08-10T00:17:55.615Z,0
2017-08-10T00:19:05.229Z,0
2017-08-10T00:20:15.165Z,0
2017-08-10T00:21:24.887Z,0
2017-08-10T00:22:34.809Z,0
2017-08-10T00:23:44.729Z,0
2017-08-10T00:24:54.328Z,0
2017-08-10T00:26:03.936Z,0
2017-08-10T00:27:13.859Z,0
2017-08-10T00:28:24.076Z,0
2017-08-10T00:29:33.991Z,0
2017-08-10T00:30:44.215Z,0
2017-08-10T00:31:54.362Z,0
2017-08-10T00:33:04.746Z,0
2017-08-10T00:34:14.348Z,0
2017-08-10T00:35:23.956Z,0
2017-08-10T00:36:33.873Z,0
2017-08-10T00:37:43.181Z,0
2017-08-10T00:38:53.092Z,0
2017-08-10T00:40:03.019Z,0
2017-08-10T00:41:12.648Z,0
2017-08-10T00:42:22.563Z,0
2017-08-10T00:43:32.490Z,0
2017-08-10T00:44:42.421Z,0
2017-08-10T00:45:51.731Z,0
2017-08-10T00:47:01.646Z,0
2017-08-10T00:48:11.240Z,0
2017-08-10T00:49:21.171Z,0
2017-08-10T00:50:31.083Z,0
2017-08-10T00:51:41.314Z,0
2017-08-10T00:52:50.935Z,0
2017-08-10T00:54:00.248Z,0
2017-08-10T00:55:10.468Z,0
2017-08-10T00:56:20.842Z,0
2017-08-10T00:57:31.060Z,0
2017-08-10T00:58:40.968Z,0
2017-08-10T00:59:50.881Z,0
2017-08-10T01:01:01.107Z,0
2017-08-10T01:02:11.083Z,0
2017-08-10T01:03:21.295Z,0
2017-08-10T01:04:31.517Z,0
2017-08-10T01:05:41.740Z,0
2017-08-10T01:06:51.033Z,0
2017-08-10T01:08:01.064Z,0
2017-08-10T01:09:10.687Z,0
2017-08-10T01:10:20.298Z,0
2017-08-10T01:11:30.531Z,0
2017-08-10T01:12:40.755Z,0
2017-08-10T01:13:50.363Z,0
2017-08-10T01:15:00.587Z,0
2017-08-10T01:16:09.606Z,0
2017-08-10T01:17:19.521Z,0
2017-08-10T01:18:29.122Z,0
2017-08-10T01:19:39.156Z,0
2017-08-10T01:20:48.770Z,0
2017-08-10T01:21:58.692Z,0
2017-08-10T01:23:08.341Z,0
2017-08-10T01:24:18.572Z,0
2017-08-10T01:25:28.904Z,0
2017-08-10T01:26:38.507Z,0
2017-08-10T01:27:48.443Z,0
2017-08-10T01:28:58.667Z,0
2017-08-10T01:30:08.577Z,0
2017-08-10T01:31:18.943Z,0
2017-08-10T01:32:28.556Z,0
2017-08-10T01:33:38.469Z,0
2017-08-10T01:34:48.112Z,0
2017-08-10T01:35:58.024Z,0
2017-08-10T01:37:08.250Z,0
2017-08-10T01:38:17.257Z,0
2017-08-10T01:39:27.511Z,0
2017-08-10T01:40:37.741Z,0
2017-08-10T01:41:47.686Z,0
2017-08-10T01:42:57.975Z,0
2017-08-10T01:44:07.576Z,0
2017-08-10T01:45:17.488Z,0
2017-08-10T01:46:27.094Z,0
2017-08-10T01:47:36.099Z,0
2017-08-10T01:48:46.383Z,0
2017-08-10T01:49:56.292Z,0
2017-08-10T01:51:06.516Z,0
2017-08-10T01:52:16.445Z,0
2017-08-10T01:53:26.670Z,0
2017-08-10T01:54:36.769Z,0
2017-08-10T01:55:46.987Z,0
2017-08-10T01:56:57.223Z,0
2017-08-10T01:58:06.839Z,0
2017-08-10T01:59:16.776Z,0
2017-08-10T02:00:27.155Z,0
2017-08-10T02:01:37.361Z,0
2017-08-10T02:02:47.272Z,0
2017-08-10T02:03:57.181Z,0
2017-08-10T02:05:06.797Z,0
2017-08-10T02:06:16.724Z,0
2017-08-10T02:07:26.359Z,0
2017-08-10T02:08:36.589Z,0
2017-08-10T02:09:46.192Z,0
2017-08-10T02:10:55.493Z,0
2017-08-10T02:12:05.146Z,0
2017-08-10T02:13:15.051Z,0
2017-08-10T02:14:24.664Z,0
2017-08-10T02:15:34.911Z,0
2017-08-10T02:16:44.823Z,0
2017-08-10T02:17:54.201Z,0
2017-08-10T02:19:04.442Z,0
2017-08-10T02:20:14.675Z,0
2017-08-10T02:21:24.590Z,0
2017-08-10T02:22:33.895Z,0
2017-08-10T02:23:44.129Z,0
2017-08-10T02:24:53.721Z,0
2017-08-10T02:26:03.031Z,0
2017-08-10T02:27:12.321Z,0
2017-08-10T02:28:22.231Z,0
2017-08-10T02:29:31.837Z,0
2017-08-10T02:30:42.088Z,0
2017-08-10T02:31:51.991Z,0
2017-08-10T02:33:02.221Z,0
2017-08-10T02:34:12.133Z,0
2017-08-10T02:35:22.422Z,0
2017-08-10T02:36:32.665Z,0
2017-08-10T02:37:42.581Z,0
2017-08-10T02:38:52.790Z,0
2017-08-10T02:40:02.421Z,0
2017-08-10T02:41:12.793Z,0
2017-08-10T02:42:23.020Z,0
2017-08-10T02:43:32.949Z,0
2017-08-10T02:44:42.550Z,0
2017-08-10T02:45:52.453Z,0
2017-08-10T02:47:02.192Z,0
2017-08-10T02:48:11.799Z,0
2017-08-10T02:49:21.095Z,0
2017-08-10T02:50:30.704Z,0
2017-08-10T02:51:40.313Z,0
2017-08-10T02:52:50.688Z,0
2017-08-10T02:53:59.995Z,0
2017-08-10T02:55:09.933Z,0
2017-08-10T02:56:19.851Z,0
2017-08-10T02:57:29.488Z,0
2017-08-10T02:58:39.548Z,0
2017-08-10T02:59:49.163Z,0
2017-08-10T03:00:59.407Z,0
2017-08-10T03:02:09.352Z,0
2017-08-10T03:03:19.285Z,0
2017-08-10T03:04:28.962Z,0
2017-08-10T03:05:38.578Z,0
2017-08-10T03:06:48.824Z,0
2017-08-10T03:07:58.134Z,0
2017-08-10T03:09:08.061Z,0
2017-08-10T03:10:17.958Z,0
2017-08-10T03:11:27.864Z,0
2017-08-10T03:12:38.093Z,0
2017-08-10T03:13:48.009Z,0
2017-08-10T03:14:57.951Z,0
2017-08-10T03:16:07.905Z,0
2017-08-10T03:17:17.819Z,0
2017-08-10T03:18:27.733Z,0
2017-08-10T03:19:37.043Z,0
2017-08-10T03:20:46.977Z,0
2017-08-10T03:21:56.581Z,0
2017-08-10T03:23:06.498Z,0
2017-08-10T03:24:16.413Z,0
2017-08-10T03:25:26.335Z,0
2017-08-10T03:26:35.934Z,0
2017-08-10T03:27:46.454Z,0
2017-08-10T03:28:56.085Z,0
2017-08-10T03:30:06.300Z,0
2017-08-10T03:31:15.913Z,0
2017-08-10T03:32:26.127Z,0
2017-08-10T03:33:36.364Z,0
2017-08-10T03:34:46.280Z,0
2017-08-10T03:35:56.205Z,0
2017-08-10T03:37:06.423Z,0
2017-08-10T03:38:16.640Z,0
2017-08-10T03:39:26.858Z,0
2017-08-10T03:40:37.100Z,0
2017-08-10T03:41:47.320Z,0
2017-08-10T03:42:57.259Z,0
2017-08-10T03:44:07.204Z,0
2017-08-10T03:45:17.526Z,0
2017-08-10T03:46:27.153Z,0
2017-08-10T03:47:37.430Z,0
2017-08-10T03:48:46.732Z,0
2017-08-10T03:49:56.968Z,0
2017-08-10T03:51:06.895Z,0
2017-08-10T03:52:16.505Z,0
2017-08-10T03:53:26.417Z,0
2017-08-10T03:54:36.024Z,0
2017-08-10T03:55:46.005Z,0
2017-08-10T03:56:56.084Z,0
2017-08-10T03:58:05.996Z,0
2017-08-10T03:59:15.601Z,0
2017-08-10T04:00:25.822Z,0
2017-08-10T04:01:35.131Z,0
2017-08-10T04:02:45.660Z,0
2017-08-10T04:03:55.594Z,0
2017-08-10T04:05:05.601Z,0
2017-08-10T04:06:15.538Z,0
2017-08-10T04:07:25.762Z,0
2017-08-10T04:08:36.152Z,0
2017-08-10T04:09:46.061Z,0
2017-08-10T04:10:55.677Z,0
2017-08-10T04:12:05.605Z,0
2017-08-10T04:13:15.835Z,4
2017-08-10T04:14:25.848Z,4
2017-08-10T04:15:35.760Z,4
2017-08-10T04:16:45.975Z,4
2017-08-10T04:17:55.577Z,4
2017-08-10T04:19:05.494Z,4
2017-08-10T04:20:15.405Z,4
2017-08-10T04:21:25.316Z,4
2017-08-10T04:22:35.225Z,4
2017-08-10T04:23:45.152Z,8
2017-08-10T04:24:55.373Z,4
2017-08-10T04:26:05.294Z,8
2017-08-10T04:27:15.545Z,8
2017-08-10T04:28:25.155Z,12
2017-08-10T04:29:35.372Z,8
2017-08-10T04:30:45.281Z,12
2017-08-10T04:31:55.644Z,12
2017-08-10T04:33:05.870Z,16
2017-08-10T04:34:16.104Z,16
2017-08-10T04:35:25.411Z,16
2017-08-10T04:36:35.318Z,16
2017-08-10T04:37:45.699Z,16
2017-08-10T04:38:55.607Z,12
2017-08-10T04:40:05.516Z,16
2017-08-10T04:41:15.135Z,16
2017-08-10T04:42:25.048Z,20
2017-08-10T04:43:34.819Z,20
2017-08-10T04:44:44.745Z,24
2017-08-10T04:45:54.349Z,24
2017-08-10T04:47:04.278Z,28
2017-08-10T04:48:13.598Z,32
2017-08-10T04:49:23.653Z,36
2017-08-10T04:50:33.880Z,40
2017-08-10T04:51:43.819Z,40
2017-08-10T04:52:53.425Z,40
2017-08-10T04:54:03.360Z,36
2017-08-10T04:55:13.066Z,36
2017-08-10T04:56:22.682Z,36
2017-08-10T04:57:32.590Z,36
2017-08-10T04:58:42.810Z,36
2017-08-10T04:59:52.717Z,40
2017-08-10T05:01:02.794Z,36
2017-08-10T05:02:12.722Z,40
2017-08-10T05:03:22.940Z,40
2017-08-10T05:04:33.187Z,44
2017-08-10T05:05:43.431Z,44
2017-08-10T05:06:53.445Z,44
2017-08-10T05:08:02.752Z,48
2017-08-10T05:09:12.372Z,48
2017-08-10T05:10:21.976Z,52
2017-08-10T05:11:31.609Z,52
2017-08-10T05:12:40.961Z,56
2017-08-10T05:13:51.193Z,52
2017-08-10T05:15:01.122Z,52
2017-08-10T05:16:10.720Z,48
2017-08-10T05:17:20.378Z,48
2017-08-10T05:18:30.764Z,44
2017-08-10T05:19:40.978Z,40
2017-08-10T05:20:50.900Z,44
2017-08-10T05:22:00.841Z,48
2017-08-10T05:23:11.026Z,64
2017-08-10T05:24:21.392Z,76
2017-08-10T05:25:31.008Z,88
2017-08-10T05:26:41.259Z,96
2017-08-10T05:27:50.557Z,96
2017-08-10T05:29:00.783Z,100
2017-08-10T05:30:10.700Z,100
2017-08-10T05:31:20.926Z,100
2017-08-10T05:32:30.533Z,100
2017-08-10T05:33:40.134Z,100
2017-08-10T05:34:50.055Z,108
2017-08-10T05:35:59.980Z,116
2017-08-10T05:37:09.606Z,128
2017-08-10T05:38:19.846Z,140
2017-08-10T05:39:30.072Z,144
2017-08-10T05:40:39.991Z,140
2017-08-10T05:41:50.058Z,132
2017-08-10T05:42:59.732Z,128
2017-08-10T05:44:09.039Z,120
2017-08-10T05:45:18.744Z,112
2017-08-10T05:46:28.991Z,108
2017-08-10T05:47:38.976Z,104
2017-08-10T05:48:48.893Z,100
2017-08-10T05:49:58.513Z,100
2017-08-10T05:51:08.731Z,96
2017-08-10T05:52:18.035Z,96
2017-08-10T05:53:28.266Z,100
2017-08-10T05:54:38.189Z,100
2017-08-10T05:55:48.403Z,100
2017-08-10T05:56:58.005Z,96
2017-08-10T05:58:07.920Z,96
2017-08-10T05:59:18.134Z,96
2017-08-10T06:00:27.737Z,96
2017-08-10T06:01:37.956Z,96
2017-08-10T06:02:47.874Z,100
2017-08-10T06:03:57.783Z,100
2017-08-10T06:05:07.689Z,104
2017-08-10T06:06:17.292Z,112
2017-08-10T06:07:27.229Z,112
2017-08-10T06:08:37.135Z,120
2017-08-10T06:09:47.382Z,120
2017-08-10T06:10:57.033Z,116
2017-08-10T06:12:06.961Z,116
2017-08-10T06:13:16.589Z,124
2017-08-10T06:14:26.206Z,128
2017-08-10T06:15:36.421Z,136
2017-08-10T06:16:46.403Z,140
2017-08-10T06:17:56.628Z,148
2017-08-10T06:19:06.243Z,164
2017-08-10T06:20:15.852Z,176
2017-08-10T06:21:25.464Z,184
2017-08-10T06:22:35.407Z,180
2017-08-10T06:23:45.653Z,172
2017-08-10T06:24:54.965Z,160
2017-08-10T06:26:04.877Z,168
2017-08-10T06:27:14.514Z,164
2017-08-10T06:28:24.902Z,160
2017-08-10T06:29:34.820Z,164
2017-08-10T06:30:44.129Z,156
2017-08-10T06:31:53.739Z,160
2017-08-10T06:33:03.362Z,168
2017-08-10T06:34:13.569Z,172
2017-08-10T06:35:23.832Z,196
2017-08-10T06:36:33.764Z,204
2017-08-10T06:37:43.399Z,208
2017-08-10T06:38:53.329Z,212
2017-08-10T06:40:03.635Z,208
2017-08-10T06:41:13.558Z,208
2017-08-10T06:42:23.781Z,204
2017-08-10T06:43:33.699Z,208
2017-08-10T06:44:43.625Z,212
2017-08-10T06:45:54.026Z,216
2017-08-10T06:47:04.257Z,220
2017-08-10T06:48:14.189Z,216
2017-08-10T06:49:24.434Z,220
2017-08-10T06:50:34.410Z,220
2017-08-10T06:51:43.812Z,224
2017-08-10T06:52:53.736Z,224
2017-08-10T06:54:03.970Z,228
2017-08-10T06:55:13.583Z,228
2017-08-10T06:56:23.824Z,232
2017-08-10T06:57:33.967Z,228
2017-08-10T06:58:43.887Z,220
2017-08-10T06:59:53.807Z,224
2017-08-10T07:01:03.438Z,224
2017-08-10T07:02:13.373Z,232
2017-08-10T07:03:23.776Z,236
2017-08-10T07:04:33.705Z,244
2017-08-10T07:05:43.627Z,256
2017-08-10T07:06:53.871Z,264
2017-08-10T07:08:04.121Z,272
2017-08-10T07:09:14.052Z,284
2017-08-10T07:10:24.293Z,292
2017-08-10T07:11:34.242Z,296
2017-08-10T07:12:44.477Z,304
2017-08-10T07:13:54.422Z,304
2017-08-10T07:15:04.472Z,308
2017-08-10T07:16:14.713Z,312
2017-08-10T07:17:24.359Z,304
2017-08-10T07:18:34.588Z,312
2017-08-10T07:19:44.827Z,316
2017-08-10T07:20:54.147Z,316
2017-08-10T07:22:04.377Z,324
2017-08-10T07:23:14.322Z,324
2017-08-10T07:24:24.554Z,340
2017-08-10T07:25:34.189Z,352
2017-08-10T07:26:44.111Z,360
2017-08-10T07:27:54.044Z,376
2017-08-10T07:29:03.731Z,368
2017-08-10T07:30:13.655Z,352
2017-08-10T07:31:22.986Z,340
2017-08-10T07:32:33.210Z,356
2017-08-10T07:33:43.452Z,364
2017-08-10T07:34:53.702Z,372
2017-08-10T07:36:03.932Z,372
2017-08-10T07:37:13.877Z,380
2017-08-10T07:38:24.216Z,392
2017-08-10T07:39:34.487Z,404
2017-08-10T07:40:44.141Z,424
2017-08-10T07:41:54.080Z,428
2017-08-10T07:43:03.690Z,424
2017-08-10T07:44:13.478Z,416
2017-08-10T07:45:22.788Z,408
2017-08-10T07:46:33.023Z,392
2017-08-10T07:47:42.972Z,368
2017-08-10T07:48:53.220Z,348
2017-08-10T07:50:03.185Z,332
2017-08-10T07:51:12.206Z,332
2017-08-10T07:52:22.139Z,348
2017-08-10T07:53:31.760Z,364
2017-08-10T07:54:41.389Z,380
2017-08-10T07:55:51.936Z,392
2017-08-10T07:57:02.195Z,408
2017-08-10T07:58:11.822Z,420
2017-08-10T07:59:22.080Z,448
2017-08-10T08:00:31.405Z,472
2017-08-10T08:01:41.627Z,500
2017-08-10T08:02:51.540Z,552
2017-08-10T08:04:01.485Z,600
2017-08-10T08:05:11.099Z,624
2017-08-10T08:06:21.364Z,612
2017-08-10T08:07:30.357Z,580
2017-08-10T08:08:40.601Z,560
2017-08-10T08:09:50.220Z,536
2017-08-10T08:11:00.156Z,552
2017-08-10T08:12:10.099Z,580
2017-08-10T08:13:20.024Z,628
2017-08-10T08:14:29.962Z,644
2017-08-10T08:15:39.632Z,684
2017-08-10T08:16:49.904Z,720
2017-08-10T08:17:59.882Z,708
2017-08-10T08:19:09.947Z,668
2017-08-10T08:20:19.907Z,728
2017-08-10T08:21:29.528Z,744
2017-08-10T08:22:39.468Z,792
2017-08-10T08:23:49.698Z,792
2017-08-10T08:24:59.798Z,788
2017-08-10T08:26:09.435Z,784
2017-08-10T08:27:19.678Z,780
2017-08-10T08:28:29.298Z,788
2017-08-10T08:29:38.942Z,764
2017-08-10T08:30:49.193Z,744
2017-08-10T08:31:58.516Z,760
2017-08-10T08:33:08.451Z,808
2017-08-10T08:34:18.685Z,860
2017-08-10T08:35:28.610Z,888
2017-08-10T08:36:38.841Z,876
2017-08-10T08:37:48.466Z,844
2017-08-10T08:38:58.714Z,832
2017-08-10T08:40:08.343Z,844
2017-08-10T08:41:18.588Z,844
2017-08-10T08:42:28.974Z,836
2017-08-10T08:43:38.902Z,832
2017-08-10T08:44:48.841Z,852
2017-08-10T08:45:59.100Z,856
2017-08-10T08:47:09.040Z,832
2017-08-10T08:48:19.583Z,784
2017-08-10T08:49:29.531Z,720
2017-08-10T08:50:38.857Z,644
2017-08-10T08:51:48.779Z,588
2017-08-10T08:52:59.035Z,548
2017-08-10T08:54:08.812Z,528
2017-08-10T08:55:18.770Z,516
2017-08-10T08:56:28.703Z,516
2017-08-10T08:57:38.633Z,512
2017-08-10T08:58:48.861Z,508
2017-08-10T08:59:58.806Z,496
2017-08-10T09:01:08.744Z,460
2017-08-10T09:02:18.072Z,424
2017-08-10T09:03:28.324Z,436
2017-08-10T09:04:37.949Z,488
2017-08-10T09:05:47.964Z,484
2017-08-10T09:06:58.205Z,496
2017-08-10T09:08:08.129Z,524
2017-08-10T09:09:17.747Z,540
2017-08-10T09:10:27.072Z,568
2017-08-10T09:11:37.373Z,560
2017-08-10T09:12:47.608Z,552
2017-08-10T09:13:57.846Z,572
2017-08-10T09:15:08.100Z,588
2017-08-10T09:16:18.040Z,620
2017-08-10T09:17:27.807Z,632
2017-08-10T09:18:37.776Z,628
2017-08-10T09:19:48.010Z,604
2017-08-10T09:20:57.944Z,576
2017-08-10T09:22:07.887Z,564
2017-08-10T09:23:18.151Z,568
2017-08-10T09:24:27.793Z,556
2017-08-10T09:25:38.040Z,548
2017-08-10T09:26:47.043Z,548
2017-08-10T09:27:56.665Z,552
2017-08-10T09:29:05.670Z,572
2017-08-10T09:30:15.598Z,592
2017-08-10T09:31:25.538Z,616
2017-08-10T09:32:35.778Z,644
2017-08-10T09:33:45.704Z,656
2017-08-10T09:34:55.620Z,668
2017-08-10T09:36:05.853Z,688
2017-08-10T09:37:16.137Z,716
2017-08-10T09:38:26.089Z,724
2017-08-10T09:39:35.704Z,728
2017-08-10T09:40:45.930Z,732
2017-08-10T09:41:55.866Z,752
2017-08-10T09:43:05.798Z,776
2017-08-10T09:44:15.411Z,760
2017-08-10T09:45:25.028Z,736
2017-08-10T09:46:35.133Z,704
2017-08-10T09:47:45.359Z,676
2017-08-10T09:48:55.316Z,656
2017-08-10T09:50:04.940Z,668
2017-08-10T09:51:14.857Z,692
2017-08-10T09:52:24.653Z,724
2017-08-10T09:53:34.907Z,772
2017-08-10T09:54:44.539Z,824
2017-08-10T09:55:53.533Z,868
2017-08-10T09:57:03.774Z,888
2017-08-10T09:58:13.441Z,888
2017-08-10T09:59:23.369Z,864
2017-08-10T10:00:33.295Z,828
2017-08-10T10:01:43.538Z,812
2017-08-10T10:02:53.784Z,804
2017-08-10T10:04:03.235Z,784
2017-08-10T10:05:13.191Z,748
2017-08-10T10:06:23.132Z,704
2017-08-10T10:07:33.062Z,684
2017-08-10T10:08:42.374Z,700
2017-08-10T10:09:52.416Z,732
2017-08-10T10:11:02.337Z,772
2017-08-10T10:12:11.986Z,804
2017-08-10T10:13:21.938Z,832
2017-08-10T10:14:32.189Z,852
2017-08-10T10:15:41.898Z,856
2017-08-10T10:16:52.130Z,844
2017-08-10T10:18:02.372Z,828
2017-08-10T10:19:12.309Z,812
2017-08-10T10:20:22.236Z,800
2017-08-10T10:21:31.913Z,808
2017-08-10T10:22:41.222Z,816
2017-08-10T10:23:51.495Z,824
2017-08-10T10:25:01.738Z,832
2017-08-10T10:26:11.673Z,824
2017-08-10T10:27:21.478Z,812
2017-08-10T10:28:31.740Z,800
2017-08-10T10:29:41.679Z,788
2017-08-10T10:30:51.600Z,772
2017-08-10T10:32:01.238Z,748
2017-08-10T10:33:11.155Z,700
2017-08-10T10:34:21.383Z,656
2017-08-10T10:35:31.318Z,636
2017-08-10T10:36:40.933Z,644
2017-08-10T10:37:51.161Z,656
2017-08-10T10:39:01.243Z,648
2017-08-10T10:40:11.851Z,636
2017-08-10T10:41:22.080Z,624
2017-08-10T10:42:32.331Z,616
2017-08-10T10:43:41.962Z,600
2017-08-10T10:44:51.382Z,580
2017-08-10T10:46:01.314Z,568
2017-08-10T10:47:11.226Z,552
2017-08-10T10:48:21.163Z,536
2017-08-10T10:49:30.494Z,520
2017-08-10T10:50:40.481Z,504
2017-08-10T10:51:50.106Z,484
2017-08-10T10:53:00.034Z,448
2017-08-10T10:54:09.356Z,420
2017-08-10T10:55:18.353Z,408
2017-08-10T10:56:28.270Z,404
2017-08-10T10:57:38.513Z,384
2017-08-10T10:58:48.137Z,380
2017-08-10T10:59:58.073Z,392
2017-08-10T11:01:08.004Z,420
2017-08-10T11:02:17.621Z,436
2017-08-10T11:03:27.537Z,436
2017-08-10T11:04:37.475Z,424
2017-08-10T11:05:47.403Z,432
2017-08-10T11:06:57.340Z,456
2017-08-10T11:08:07.563Z,492
2017-08-10T11:09:17.481Z,508
2017-08-10T11:10:27.096Z,520
2017-08-10T11:11:37.332Z,520
2017-08-10T11:12:47.279Z,500
2017-08-10T11:13:57.362Z,480
2017-08-10T11:15:06.989Z,480
2017-08-10T11:16:17.218Z,488
2017-08-10T11:17:26.846Z,508
2017-08-10T11:18:36.144Z,528
2017-08-10T11:19:46.085Z,532
2017-08-10T11:20:56.018Z,532
2017-08-10T11:22:05.333Z,524
2017-08-10T11:23:14.645Z,508
2017-08-10T11:24:24.583Z,500
2017-08-10T11:25:34.919Z,472
2017-08-10T11:26:44.848Z,448
2017-08-10T11:27:54.799Z,424
2017-08-10T11:29:04.727Z,408
2017-08-10T11:30:14.671Z,400
2017-08-10T11:31:24.112Z,388
2017-08-10T11:32:34.343Z,396
2017-08-10T11:33:44.579Z,392
2017-08-10T11:34:54.506Z,380
2017-08-10T11:36:04.132Z,368
2017-08-10T11:37:14.384Z,352
2017-08-10T11:38:24.691Z,344
2017-08-10T11:39:34.304Z,340
2017-08-10T11:40:43.942Z,356
2017-08-10T11:41:53.858Z,372
2017-08-10T11:43:04.162Z,408
2017-08-10T11:44:14.106Z,436
2017-08-10T11:45:24.334Z,448
2017-08-10T11:46:33.336Z,468
2017-08-10T11:47:42.939Z,496
2017-08-10T11:48:52.597Z,528
2017-08-10T11:50:02.509Z,572
2017-08-10T11:51:12.139Z,632
2017-08-10T11:52:22.368Z,660
2017-08-10T11:53:32.350Z,692
2017-08-10T11:54:42.579Z,740
2017-08-10T11:55:52.510Z,768
2017-08-10T11:57:02.462Z,824
2017-08-10T11:58:11.784Z,904
2017-08-10T11:59:22.020Z,1036
2017-08-10T12:00:32.230Z,1152
2017-08-10T12:01:42.484Z,1224
2017-08-10T12:02:51.790Z,1224
2017-08-10T12:04:01.435Z,1168
2017-08-10T12:05:11.377Z,1112
2017-08-10T12:06:21.622Z,1024
2017-08-10T12:07:31.540Z,900
2017-08-10T12:08:41.469Z,836
2017-08-10T12:09:51.411Z,836
2017-08-10T12:11:01.632Z,860
2017-08-10T12:12:11.960Z,940
2017-08-10T12:13:21.900Z,996
2017-08-10T12:14:32.135Z,996
2017-08-10T12:15:41.756Z,944
2017-08-10T12:16:52.000Z,876
2017-08-10T12:18:01.919Z,860
2017-08-10T12:19:12.166Z,912
2017-08-10T12:20:22.423Z,952
2017-08-10T12:21:32.654Z,960
2017-08-10T12:22:42.572Z,872
2017-08-10T12:23:52.182Z,756
2017-08-10T12:25:02.401Z,668
2017-08-10T12:26:12.640Z,660
2017-08-10T12:27:22.254Z,648
2017-08-10T12:28:31.567Z,636
2017-08-10T12:29:41.482Z,664
2017-08-10T12:30:51.115Z,720
2017-08-10T12:32:01.035Z,756
2017-08-10T12:33:10.976Z,776
2017-08-10T12:34:20.948Z,752
2017-08-10T12:35:31.220Z,752
2017-08-10T12:36:41.152Z,744
2017-08-10T12:37:50.479Z,772
2017-08-10T12:39:00.406Z,848
2017-08-10T12:40:10.324Z,920
2017-08-10T12:41:20.859Z,964
2017-08-10T12:42:30.787Z,916
2017-08-10T12:43:41.023Z,920
2017-08-10T12:44:51.263Z,944
2017-08-10T12:46:01.190Z,920
2017-08-10T12:47:10.660Z,860
2017-08-10T12:48:20.599Z,784
2017-08-10T12:49:30.214Z,716
2017-08-10T12:50:40.479Z,672
2017-08-10T12:51:50.124Z,620
2017-08-10T12:53:00.047Z,656
2017-08-10T12:54:09.969Z,704
2017-08-10T12:55:19.928Z,720
2017-08-10T12:56:29.918Z,728
2017-08-10T12:57:40.163Z,736
2017-08-10T12:58:50.136Z,776
2017-08-10T13:00:00.075Z,756
2017-08-10T13:01:09.701Z,724
2017-08-10T13:02:19.936Z,676
2017-08-10T13:03:30.182Z,624
2017-08-10T13:04:39.190Z,612
2017-08-10T13:05:48.505Z,636
2017-08-10T13:06:58.168Z,668
2017-08-10T13:08:07.811Z,684
2017-08-10T13:09:17.446Z,664
2017-08-10T13:10:27.406Z,596
2017-08-10T13:11:37.366Z,544
2017-08-10T13:12:47.306Z,524
2017-08-10T13:13:56.929Z,512
2017-08-10T13:15:06.882Z,496
2017-08-10T13:16:16.293Z,472
2017-08-10T13:17:25.923Z,448
2017-08-10T13:18:36.170Z,428
2017-08-10T13:19:45.811Z,392
2017-08-10T13:20:54.829Z,376
2017-08-10T13:22:04.597Z,360
2017-08-10T13:23:14.258Z,352
2017-08-10T13:24:23.912Z,348
2017-08-10T13:25:34.144Z,360
2017-08-10T13:26:44.109Z,384
2017-08-10T13:27:54.867Z,416
2017-08-10T13:29:04.837Z,432
2017-08-10T13:30:15.064Z,500
2017-08-10T13:31:24.671Z,676
2017-08-10T13:32:34.288Z,776
2017-08-10T13:33:44.322Z,808
2017-08-10T13:34:53.630Z,824
2017-08-10T13:36:03.565Z,860
2017-08-10T13:37:13.487Z,864
2017-08-10T13:38:23.720Z,844
2017-08-10T13:39:33.523Z,808
2017-08-10T13:40:43.438Z,712
2017-08-10T13:41:53.050Z,560
2017-08-10T13:43:02.977Z,484
2017-08-10T13:44:13.205Z,388
2017-08-10T13:45:23.419Z,448
2017-08-10T13:46:33.367Z,416
2017-08-10T13:47:43.602Z,376
2017-08-10T13:48:53.555Z,376
2017-08-10T13:50:03.799Z,376
2017-08-10T13:51:13.771Z,360
2017-08-10T13:52:23.105Z,332
2017-08-10T13:53:33.098Z,292
2017-08-10T13:54:43.047Z,312
2017-08-10T13:55:53.297Z,332
2017-08-10T13:57:02.774Z,336
2017-08-10T13:58:12.076Z,328
2017-08-10T13:59:21.752Z,320
2017-08-10T14:00:31.984Z,340
2017-08-10T14:01:41.920Z,356
2017-08-10T14:02:51.540Z,368
2017-08-10T14:04:00.855Z,380
2017-08-10T14:05:10.486Z,392
2017-08-10T14:06:20.123Z,396
2017-08-10T14:07:29.458Z,400
2017-08-10T14:08:39.793Z,412
2017-08-10T14:09:50.040Z,436
2017-08-10T14:11:00.288Z,460
2017-08-10T14:12:09.908Z,468
2017-08-10T14:13:19.838Z,476
2017-08-10T14:14:30.070Z,464
2017-08-10T14:15:40.291Z,436
2017-08-10T14:16:50.223Z,436
2017-08-10T14:18:00.145Z,436
2017-08-10T14:19:09.773Z,408
2017-08-10T14:20:19.394Z,364
2017-08-10T14:21:29.018Z,356
2017-08-10T14:22:38.966Z,396
2017-08-10T14:23:48.285Z,452
2017-08-10T14:24:58.203Z,524
2017-08-10T14:26:08.008Z,608
2017-08-10T14:27:18.234Z,668
2017-08-10T14:28:28.173Z,672
2017-08-10T14:29:38.440Z,596
2017-08-10T14:30:48.378Z,532
2017-08-10T14:31:58.319Z,492
2017-08-10T14:33:07.952Z,488
2017-08-10T14:34:17.606Z,528
2017-08-10T14:35:27.241Z,532
2017-08-10T14:36:37.169Z,520
2017-08-10T14:37:46.572Z,520
2017-08-10T14:38:56.803Z,496
2017-08-10T14:40:06.420Z,440
2017-08-10T14:41:16.370Z,328
2017-08-10T14:42:25.992Z,236
2017-08-10T14:43:35.816Z,188
2017-08-10T14:44:46.061Z,160
2017-08-10T14:45:56.319Z,132
2017-08-10T14:47:06.552Z,116
2017-08-10T14:48:16.183Z,108
2017-08-10T14:49:25.818Z,104
2017-08-10T14:50:35.449Z,100
2017-08-10T14:51:44.772Z,104
2017-08-10T14:52:54.407Z,104
2017-08-10T14:54:04.644Z,108
2017-08-10T14:55:14.870Z,112
2017-08-10T14:56:24.804Z,116
2017-08-10T14:57:34.424Z,112
2017-08-10T14:58:44.676Z,124
2017-08-10T14:59:54.598Z,136
2017-08-10T15:01:04.602Z,152
2017-08-10T15:02:14.529Z,160
2017-08-10T15:03:24.491Z,164
2017-08-10T15:04:34.438Z,144
2017-08-10T15:05:44.685Z,112
2017-08-10T15:06:54.471Z,88
2017-08-10T15:08:04.383Z,80
2017-08-10T15:09:14.649Z,92
2017-08-10T15:10:23.991Z,104
2017-08-10T15:11:34.223Z,120
2017-08-10T15:12:44.462Z,144
2017-08-10T15:13:54.080Z,160
2017-08-10T15:15:04.008Z,192
2017-08-10T15:16:13.942Z,252
2017-08-10T15:17:23.603Z,304
2017-08-10T15:18:34.005Z,320
2017-08-10T15:19:43.328Z,336
2017-08-10T15:20:53.250Z,344
2017-08-10T15:22:02.862Z,324
2017-08-10T15:23:13.089Z,308
2017-08-10T15:24:23.497Z,296
2017-08-10T15:25:33.726Z,296
2017-08-10T15:26:43.665Z,300
2017-08-10T15:27:53.908Z,304
2017-08-10T15:29:03.863Z,320
2017-08-10T15:30:14.082Z,320
2017-08-10T15:31:24.340Z,300
2017-08-10T15:32:34.594Z,284
2017-08-10T15:33:43.916Z,280
2017-08-10T15:34:54.137Z,288
2017-08-10T15:36:03.453Z,300
2017-08-10T15:37:13.700Z,312
2017-08-10T15:38:23.934Z,332
2017-08-10T15:39:34.168Z,344
2017-08-10T15:40:44.087Z,348
2017-08-10T15:41:53.714Z,332
2017-08-10T15:43:03.951Z,316
2017-08-10T15:44:13.902Z,304
2017-08-10T15:45:23.520Z,288
2017-08-10T15:46:33.152Z,276
2017-08-10T15:47:42.867Z,272
2017-08-10T15:48:52.482Z,256
2017-08-10T15:50:01.790Z,220
2017-08-10T15:51:11.715Z,212
2017-08-10T15:52:21.337Z,192
2017-08-10T15:53:31.294Z,180
2017-08-10T15:54:39.997Z,168
2017-08-10T15:55:49.914Z,160
2017-08-10T15:57:00.136Z,148
2017-08-10T15:58:09.460Z,144
2017-08-10T15:59:19.231Z,168
2017-08-10T16:00:28.551Z,204
2017-08-10T16:01:38.461Z,184
2017-08-10T16:02:48.377Z,176
2017-08-10T16:03:58.317Z,204
2017-08-10T16:05:08.404Z,216
2017-08-10T16:06:18.024Z,228
2017-08-10T16:07:27.955Z,236
2017-08-10T16:08:37.868Z,244
2017-08-10T16:09:47.791Z,256
2017-08-10T16:10:57.781Z,260
2017-08-10T16:12:08.028Z,268
2017-08-10T16:13:17.341Z,280
2017-08-10T16:14:26.672Z,288
2017-08-10T16:15:36.916Z,292
2017-08-10T16:16:47.061Z,296
2017-08-10T16:17:57.304Z,284
2017-08-10T16:19:06.929Z,268
2017-08-10T16:20:16.866Z,248
2017-08-10T16:21:27.087Z,268
2017-08-10T16:22:37.169Z,280